createdAt,value
2022-08-16T00:00:22.458Z,100070.34
2022-08-16T00:00:45.130Z,100081.94
2022-08-16T00:01:08.049Z,100074.06
2022-08-16T00:01:34.215Z,100073.38
2022-08-16T00:02:02.851Z,100078.81
2022-08-16T00:02:34.800Z,100079.97
2022-08-16T00:02:59.331Z,100073.69
2022-08-16T00:03:21.341Z,100083.88
2022-08-16T00:03:46.064Z,100082.00
2022-08-16T00:04:07.768Z,100082.31
2022-08-16T00:04:31.568Z,100071.75
2022-08-16T00:04:55.294Z,100073.63
2022-08-16T00:05:23.821Z,100075.47
2022-08-16T00:05:48.580Z,100076.00
2022-08-16T00:06:11.161Z,100069.91
2022-08-16T00:06:39.353Z,100073.63
2022-08-16T00:07:01.445Z,100082.47
2022-08-16T00:07:24.715Z,100077.03
2022-08-16T00:07:56.201Z,100074.00
2022-08-16T00:08:36.803Z,100082.47
2022-08-16T00:08:59.170Z,100075.66
2022-08-16T00:09:21.627Z,100078.66
2022-08-16T00:09:44.325Z,100078.66
2022-08-16T00:10:08.648Z,100079.38
2022-08-16T00:10:42.904Z,100078.41
2022-08-16T00:11:06.182Z,100080.31
2022-08-16T00:11:28.912Z,100078.28
2022-08-16T00:11:52.669Z,100080.69
2022-08-16T00:12:17.737Z,100086.94
2022-08-16T00:12:41.719Z,100074.00
2022-08-16T00:13:09.713Z,100082.38
2022-08-16T00:13:33.712Z,100090.53
2022-08-16T00:14:08.789Z,100089.97
2022-08-16T00:14:34.060Z,100087.28
2022-08-16T00:15:00.032Z,100087.97
2022-08-16T00:15:51.115Z,100088.13
2022-08-16T00:17:00.717Z,100083.69
2022-08-16T00:17:00.717Z,100080.13
2022-08-16T00:17:56.228Z,100084.41
2022-08-16T00:18:19.364Z,100090.53
2022-08-16T00:18:47.750Z,100084.81
2022-08-16T00:19:09.725Z,100087.66
2022-08-16T00:19:41.473Z,100083.22
2022-08-16T00:20:08.668Z,100091.22
2022-08-16T00:20:34.407Z,100087.34
2022-08-16T00:20:57.263Z,100085.34
2022-08-16T00:21:19.021Z,100085.19
2022-08-16T00:21:47.140Z,100086.19
2022-08-16T00:22:15.534Z,100079.38
2022-08-16T00:22:39.001Z,100082.75
2022-08-16T00:23:07.679Z,100087.91
2022-08-16T00:23:34.789Z,100088.91
2022-08-16T00:24:04.835Z,100081.75
2022-08-16T00:24:32.705Z,100089.59
2022-08-16T00:24:56.021Z,100084.16
2022-08-16T00:25:20.175Z,100086.19
2022-08-16T00:26:33.571Z,100081.09
2022-08-16T00:26:45.464Z,100086.50
2022-08-16T00:27:08.493Z,100086.81
2022-08-16T00:27:30.884Z,100086.81
2022-08-16T00:27:52.899Z,100085.94
2022-08-16T00:28:16.757Z,100090.69
2022-08-16T00:28:38.465Z,100089.97
2022-08-16T00:29:01.565Z,100088.84
2022-08-16T00:29:23.835Z,100091.69
2022-08-16T00:29:47.894Z,100091.69
2022-08-16T00:30:29.109Z,100083.69
2022-08-16T00:30:50.907Z,100090.31
2022-08-16T00:31:13.745Z,100094.88
2022-08-16T00:31:47.140Z,100089.72
2022-08-16T00:32:23.355Z,100090.59
2022-08-16T00:32:48.462Z,100094.03
2022-08-16T00:33:12.052Z,100086.31
2022-08-16T00:33:33.894Z,100093.16
2022-08-16T00:33:55.610Z,100094.69
2022-08-16T00:34:18.977Z,100092.31
2022-08-16T00:34:45.165Z,100094.69
2022-08-16T00:35:21.022Z,100097.72
2022-08-16T00:35:42.718Z,100091.44
2022-08-16T00:36:05.921Z,100094.88
2022-08-16T00:36:30.608Z,100090.31
2022-08-16T00:36:55.793Z,100089.28
2022-08-16T00:37:20.452Z,100089.72
2022-08-16T00:37:56.743Z,100086.72
2022-08-16T00:38:41.431Z,100090.31
2022-08-16T00:39:04.182Z,100086.72
2022-08-16T00:39:25.988Z,100087.44
2022-08-16T00:39:58.227Z,100091.44
2022-08-16T00:40:34.363Z,100084.31
2022-08-16T00:41:01.765Z,100090.59
2022-08-16T00:41:24.569Z,100093.44
2022-08-16T00:41:50.095Z,100093.06
2022-08-16T00:42:31.634Z,100087.44
2022-08-16T00:42:55.369Z,100086.59
2022-08-16T00:43:21.375Z,100085.78
2022-08-16T00:43:44.553Z,100091.47
2022-08-16T00:44:11.038Z,100092.34
2022-08-16T00:44:35.307Z,100088.47
2022-08-16T00:45:01.530Z,100083.81
2022-08-16T00:45:58.481Z,100096.63
2022-08-16T00:46:34.628Z,100094.06
2022-08-16T00:47:06.030Z,100105.78
2022-08-16T00:47:29.923Z,100082.94
2022-08-16T00:47:53.147Z,100090.34
2022-08-16T00:48:30.850Z,100095.91
2022-08-16T00:48:55.309Z,100090.94
2022-08-16T00:49:19.729Z,100098.09
2022-08-16T00:49:44.439Z,100098.78
2022-08-16T00:50:08.192Z,100096.06
2022-08-16T00:50:38.179Z,100094.34
2022-08-16T00:51:02.533Z,100101.19
2022-08-16T00:51:26.242Z,100097.44
2022-08-16T00:51:55.576Z,100096.78
2022-08-16T00:52:29.178Z,100102.75
2022-08-16T00:52:53.518Z,100095.44
2022-08-16T00:53:17.829Z,100100.16
2022-08-16T00:53:41.849Z,100098.63
2022-08-16T00:54:03.948Z,100099.78
2022-08-16T00:54:29.501Z,100098.38
2022-08-16T00:54:51.316Z,100103.50
2022-08-16T00:55:14.890Z,100102.47
2022-08-16T00:55:41.580Z,100097.06
2022-08-16T00:56:08.155Z,100098.63
2022-08-16T00:56:58.553Z,100098.63
2022-08-16T00:57:18.971Z,100095.19
2022-08-16T00:57:59.573Z,100104.91
2022-08-16T00:58:34.650Z,100104.91
2022-08-16T00:58:58.169Z,100098.03
2022-08-16T00:59:25.933Z,100106.03
2022-08-16T00:59:59.079Z,100097.16
2022-08-16T01:00:24.983Z,100107.88
2022-08-16T01:00:54.235Z,100104.03
2022-08-16T01:01:18.082Z,100106.03
2022-08-16T01:01:40.355Z,100103.88
2022-08-16T01:02:31.907Z,100101.31
2022-08-16T01:02:48.831Z,100098.72
2022-08-16T01:03:13.230Z,100107.88
2022-08-16T01:03:41.692Z,100098.59
2022-08-16T01:04:07.176Z,100106.03
2022-08-16T01:05:09.654Z,100103.75
2022-08-16T01:05:32.927Z,100104.91
2022-08-16T01:05:56.364Z,100105.91
2022-08-16T01:06:39.780Z,100104.38
2022-08-16T01:07:06.665Z,100106.38
2022-08-16T01:07:51.657Z,100108.94
2022-08-16T01:08:35.018Z,100104.38
2022-08-16T01:09:00.149Z,100106.91
2022-08-16T01:09:23.880Z,100114.38
2022-08-16T01:09:55.152Z,100110.63
2022-08-16T01:10:17.033Z,100109.09
2022-08-16T01:10:39.397Z,100110.94
2022-08-16T01:11:07.420Z,100108.38
2022-08-16T01:11:29.709Z,100112.94
2022-08-16T01:11:54.924Z,100092.47
2022-08-16T01:12:26.308Z,100106.50
2022-08-16T01:12:49.607Z,100112.66
2022-08-16T01:13:15.212Z,100118.78
2022-08-16T01:13:38.698Z,100112.66
2022-08-16T01:14:08.849Z,100116.38
2022-08-16T01:14:37.385Z,100113.50
2022-08-16T01:15:00.440Z,100120.66
2022-08-16T01:15:22.449Z,100113.66
2022-08-16T01:15:52.585Z,100097.28
2022-08-16T01:16:20.215Z,100109.84
2022-08-16T01:16:45.140Z,100115.50
2022-08-16T01:17:08.399Z,100112.13
2022-08-16T01:17:36.602Z,100113.50
2022-08-16T01:18:01.229Z,100113.19
2022-08-16T01:18:40.456Z,100110.63
2022-08-16T01:19:09.608Z,100118.78
2022-08-16T01:19:40.913Z,100116.78
2022-08-16T01:20:24.371Z,100113.19
2022-08-16T01:20:56.474Z,100109.16
2022-08-16T01:21:33.719Z,100107.31
2022-08-16T01:22:48.646Z,100099.09
2022-08-16T01:22:53.758Z,100107.91
2022-08-16T01:23:24.303Z,100105.50
2022-08-16T01:24:01.459Z,100108.94
2022-08-16T01:24:52.180Z,100116.38
2022-08-16T01:25:17.945Z,100112.66
2022-08-16T01:26:00.208Z,100106.50
2022-08-16T01:26:35.630Z,100112.53
2022-08-16T01:27:03.852Z,100104.81
2022-08-16T01:27:29.662Z,100111.94
2022-08-16T01:27:56.145Z,100108.69
2022-08-16T01:28:20.548Z,100105.25
2022-08-16T01:28:45.292Z,100107.13
2022-08-16T01:29:11.218Z,100101.88
2022-08-16T01:29:56.966Z,100104.41
2022-08-16T01:30:26.324Z,100097.28
2022-08-16T01:30:56.053Z,100098.84
2022-08-16T01:31:21.291Z,100097.84
2022-08-16T01:31:52.952Z,100102.25
2022-08-16T01:32:31.930Z,100105.25
2022-08-16T01:33:15.427Z,100086.91
2022-08-16T01:33:39.667Z,100100.28
2022-08-16T01:34:07.036Z,100094.25
2022-08-16T01:34:31.242Z,100102.41
2022-08-16T01:35:17.692Z,100096.97
2022-08-16T01:35:44.317Z,100093.25
2022-08-16T01:36:12.166Z,100094.97
2022-08-16T01:36:35.871Z,100098.69
2022-08-16T01:37:04.080Z,100100.53
2022-08-16T01:37:35.624Z,100099.22
2022-08-16T01:38:13.917Z,100099.38
2022-08-16T01:38:49.014Z,100094.97
2022-08-16T01:39:17.408Z,100084.00
2022-08-16T01:39:41.249Z,100081.28
2022-08-16T01:40:07.159Z,100092.31
2022-08-16T01:40:30.637Z,100085.03
2022-08-16T01:40:56.558Z,100095.25
2022-08-16T01:41:21.419Z,100090.00
2022-08-16T01:41:46.429Z,100093.25
2022-08-16T01:42:12.927Z,100089.84
2022-08-16T01:42:35.380Z,100084.59
2022-08-16T01:42:57.307Z,100091.00
2022-08-16T01:43:20.091Z,100097.28
2022-08-16T01:43:54.274Z,100088.28
2022-08-16T01:44:18.729Z,100089.16
2022-08-16T01:44:42.134Z,100099.16
2022-08-16T01:45:06.306Z,100092.16
2022-08-16T01:45:39.557Z,100092.16
2022-08-16T01:46:30.093Z,100095.91
2022-08-16T01:46:49.806Z,100089.91
2022-08-16T01:47:14.187Z,100096.91
2022-08-16T01:47:49.359Z,100088.03
2022-08-16T01:48:20.272Z,100097.03
2022-08-16T01:48:46.245Z,100091.59
2022-08-16T01:49:11.511Z,100094.47
2022-08-16T01:49:42.908Z,100094.19
2022-08-16T01:51:07.963Z,100080.50
2022-08-16T01:51:09.139Z,100092.78
2022-08-16T01:51:34.592Z,100094.78
2022-08-16T01:52:04.801Z,100093.06
2022-08-16T01:52:36.545Z,100091.34
2022-08-16T01:53:11.152Z,100098.22
2022-08-16T01:53:56.318Z,100096.19
2022-08-16T01:54:30.706Z,100096.31
2022-08-16T01:54:53.887Z,100098.22
2022-08-16T01:55:17.152Z,100093.91
2022-08-16T01:55:41.386Z,100083.84
2022-08-16T01:56:04.071Z,100092.38
2022-08-16T01:56:30.264Z,100090.25
2022-08-16T01:56:54.332Z,100098.09
2022-08-16T01:57:18.053Z,100097.41
2022-08-16T01:57:53.267Z,100099.94
2022-08-16T01:58:20.926Z,100095.38
2022-08-16T01:58:48.027Z,100098.22
2022-08-16T01:59:15.988Z,100096.38
2022-08-16T01:59:41.139Z,100095.38
2022-08-16T02:00:18.987Z,100097.09
2022-08-16T02:00:41.435Z,100099.41
2022-08-16T02:01:07.222Z,100098.00
2022-08-16T02:01:31.934Z,100097.16
2022-08-16T02:01:59.880Z,100094.97
2022-08-16T02:02:27.288Z,100100.00
2022-08-16T02:02:52.524Z,100102.44
2022-08-16T02:03:15.960Z,100078.19
2022-08-16T02:03:40.047Z,100098.53
2022-08-16T02:04:11.277Z,100095.97
2022-08-16T02:04:49.126Z,100093.97
2022-08-16T02:05:17.725Z,100084.03
2022-08-16T02:05:40.736Z,100095.69
2022-08-16T02:06:08.388Z,100094.84
2022-08-16T02:06:34.575Z,100096.69
2022-08-16T02:06:57.518Z,100098.41
2022-08-16T02:07:23.552Z,100100.13
2022-08-16T02:07:46.656Z,100096.53
2022-08-16T02:08:32.735Z,100093.97
2022-08-16T02:08:55.955Z,100094.13
2022-08-16T02:09:20.075Z,100095.28
2022-08-16T02:09:58.932Z,100096.81
2022-08-16T02:10:34.048Z,100093.13
2022-08-16T02:10:58.021Z,100093.13
2022-08-16T02:11:19.793Z,100096.81
2022-08-16T02:11:48.766Z,100097.69
2022-08-16T02:12:49.795Z,100095.28
2022-08-16T02:13:00.607Z,100093.97
2022-08-16T02:13:27.787Z,100088.56
2022-08-16T02:13:55.580Z,100090.53
2022-08-16T02:14:18.429Z,100087.69
2022-08-16T02:14:43.603Z,100092.97
2022-08-16T02:15:08.946Z,100102.13
2022-08-16T02:15:38.745Z,100096.81
2022-08-16T02:16:06.011Z,100096.53
2022-08-16T02:16:42.790Z,100098.53
2022-08-16T02:17:10.991Z,100092.25
2022-08-16T02:17:32.969Z,100092.44
2022-08-16T02:17:56.436Z,100095.97
2022-08-16T02:18:18.610Z,100101.56
2022-08-16T02:18:40.529Z,100094.56
2022-08-16T02:19:05.313Z,100088.59
2022-08-16T02:19:59.896Z,100089.59
2022-08-16T02:20:26.290Z,100094.75
2022-08-16T02:20:54.096Z,100088.75
2022-08-16T02:21:18.553Z,100089.16
2022-08-16T02:22:07.837Z,100088.28
2022-08-16T02:22:33.632Z,100098.00
2022-08-16T02:22:59.659Z,100089.53
2022-08-16T02:23:23.480Z,100080.00
2022-08-16T02:23:46.244Z,100089.53
2022-08-16T02:24:17.553Z,100078.00
2022-08-16T02:24:52.338Z,100083.44
2022-08-16T02:25:15.923Z,100091.41
2022-08-16T02:25:51.823Z,100080.88
2022-08-16T02:26:16.945Z,100079.75
2022-08-16T02:26:40.794Z,100087.88
2022-08-16T02:27:02.812Z,100080.59
2022-08-16T02:27:27.901Z,100070.34
2022-08-16T02:27:53.467Z,100083.03
2022-08-16T02:28:17.508Z,100074.03
2022-08-16T02:28:46.997Z,100084.72
2022-08-16T02:29:13.016Z,100087.28
2022-08-16T02:29:35.080Z,100086.28
2022-08-16T02:30:05.001Z,100085.13
2022-08-16T02:30:37.214Z,100078.00
2022-08-16T02:31:10.006Z,100084.56
2022-08-16T02:32:03.986Z,100087.28
2022-08-16T02:32:50.940Z,100079.28
2022-08-16T02:33:00.197Z,100088.16
2022-08-16T02:33:44.480Z,100090.84
2022-08-16T02:34:12.287Z,100082.72
2022-08-16T02:34:40.877Z,100084.72
2022-08-16T02:35:04.738Z,100078.47
2022-08-16T02:35:31.304Z,100082.47
2022-08-16T02:35:58.081Z,100083.03
2022-08-16T02:36:47.526Z,100085.03
2022-08-16T02:37:05.969Z,100083.19
2022-08-16T02:37:51.439Z,100078.47
2022-08-16T02:38:11.941Z,100083.63
2022-08-16T02:38:34.324Z,100079.19
2022-08-16T02:38:56.109Z,100076.63
2022-08-16T02:39:19.535Z,100087.66
2022-08-16T02:39:46.263Z,100082.22
2022-08-16T02:40:18.002Z,100088.22
2022-08-16T02:40:40.051Z,100083.09
2022-08-16T02:41:09.613Z,100077.66
2022-08-16T02:41:37.355Z,100077.09
2022-08-16T02:42:01.294Z,100077.66
2022-08-16T02:42:23.927Z,100080.66
2022-08-16T02:42:49.725Z,100082.25
2022-08-16T02:43:14.000Z,100080.66
2022-08-16T02:43:37.869Z,100077.25
2022-08-16T02:44:01.104Z,100080.22
2022-08-16T02:44:26.931Z,100080.38
2022-08-16T02:44:51.076Z,100076.94
2022-08-16T02:45:13.823Z,100072.13
2022-08-16T02:45:36.125Z,100076.81
2022-08-16T02:45:58.450Z,100079.22
2022-08-16T02:46:33.502Z,100076.66
2022-08-16T02:46:57.362Z,100079.34
2022-08-16T02:47:25.229Z,100084.78
2022-08-16T02:48:01.534Z,100080.38
2022-08-16T02:48:31.116Z,100079.06
2022-08-16T02:48:54.952Z,100085.50
2022-08-16T02:49:58.459Z,100073.66
2022-08-16T02:50:54.119Z,100080.94
2022-08-16T02:50:55.187Z,100080.06
2022-08-16T02:51:28.904Z,100080.22
2022-08-16T02:51:53.992Z,100076.09
2022-08-16T02:52:24.667Z,100078.66
2022-08-16T02:52:59.423Z,100087.81
2022-08-16T02:53:23.295Z,100087.81
2022-08-16T02:53:47.930Z,100086.81
2022-08-16T02:54:14.996Z,100088.78
2022-08-16T02:54:41.222Z,100091.50
2022-08-16T02:55:03.432Z,100084.09
2022-08-16T02:55:40.915Z,100086.63
2022-08-16T02:56:05.474Z,100084.94
2022-08-16T02:56:32.585Z,100090.50
2022-08-16T02:56:54.609Z,100076.66
2022-08-16T02:57:16.295Z,100083.78
2022-08-16T02:57:42.535Z,100076.81
2022-08-16T02:58:16.392Z,100087.81
2022-08-16T02:58:38.525Z,100087.81
2022-08-16T02:59:01.556Z,100082.78
2022-08-16T02:59:25.003Z,100089.91
2022-08-16T03:00:34.240Z,100088.94
2022-08-16T03:00:49.384Z,100085.81
2022-08-16T03:01:24.122Z,100088.34
2022-08-16T03:01:56.630Z,100086.50
2022-08-16T03:02:32.121Z,100090.06
2022-08-16T03:02:59.500Z,100093.50
2022-08-16T03:03:21.286Z,100089.06
2022-08-16T03:04:29.192Z,100083.50
2022-08-16T03:04:39.588Z,100092.31
2022-08-16T03:05:12.215Z,100075.97
2022-08-16T03:05:34.810Z,100081.47
2022-08-16T03:05:57.341Z,100090.47
2022-08-16T03:06:42.350Z,100088.06
2022-08-16T03:07:11.540Z,100082.47
2022-08-16T03:07:39.303Z,100082.34
2022-08-16T03:08:31.053Z,100075.91
2022-08-16T03:08:55.107Z,100078.91
2022-08-16T03:09:19.120Z,100084.31
2022-08-16T03:09:45.802Z,100076.06
2022-08-16T03:10:14.950Z,100080.63
2022-08-16T03:10:43.177Z,100080.94
2022-08-16T03:11:16.477Z,100085.50
2022-08-16T03:11:41.447Z,100077.34
2022-08-16T03:12:05.100Z,100081.06
2022-08-16T03:12:30.353Z,100085.63
2022-08-16T03:12:59.692Z,100074.50
2022-08-16T03:13:24.729Z,100077.22
2022-08-16T03:13:48.698Z,100082.06
2022-08-16T03:14:14.086Z,100082.38
2022-08-16T03:14:43.653Z,100081.66
2022-08-16T03:15:08.203Z,100080.97
2022-08-16T03:15:30.377Z,100084.38
2022-08-16T03:15:53.725Z,100080.81
2022-08-16T03:16:32.709Z,100087.81
2022-08-16T03:17:00.747Z,100079.53
2022-08-16T03:17:32.244Z,100086.63
2022-08-16T03:17:56.798Z,100088.66
2022-08-16T03:18:34.438Z,100085.41
2022-08-16T03:19:03.113Z,100077.41
2022-08-16T03:19:48.656Z,100083.50
2022-08-16T03:20:18.241Z,100093.22
2022-08-16T03:20:41.021Z,100089.50
2022-08-16T03:21:03.881Z,100090.50
2022-08-16T03:21:28.761Z,100093.22
2022-08-16T03:22:00.212Z,100091.38
2022-08-16T03:22:27.987Z,100092.78
2022-08-16T03:22:52.530Z,100092.91
2022-08-16T03:23:19.870Z,100089.50
2022-08-16T03:23:42.819Z,100086.50
2022-08-16T03:24:28.969Z,100089.50
2022-08-16T03:24:50.083Z,100095.78
2022-08-16T03:25:16.800Z,100092.22
2022-08-16T03:25:49.845Z,100092.91
2022-08-16T03:26:13.649Z,100093.78
2022-08-16T03:26:36.720Z,100087.50
2022-08-16T03:26:59.329Z,100098.34
2022-08-16T03:27:21.531Z,100098.06
2022-08-16T03:27:44.575Z,100089.06
2022-08-16T03:28:12.507Z,100094.34
2022-08-16T03:28:35.369Z,100092.19
2022-08-16T03:28:57.512Z,100098.31
2022-08-16T03:29:19.681Z,100098.31
2022-08-16T03:29:51.176Z,100090.91
2022-08-16T03:30:22.977Z,100101.91
2022-08-16T03:30:52.034Z,100089.34
2022-08-16T03:31:17.106Z,100089.75
2022-08-16T03:31:40.595Z,100095.63
2022-08-16T03:32:05.454Z,100097.88
2022-08-16T03:32:27.132Z,100105.75
2022-08-16T03:32:51.658Z,100097.75
2022-08-16T03:33:15.847Z,100096.75
2022-08-16T03:33:45.212Z,100094.75
2022-08-16T03:34:07.381Z,100095.78
2022-08-16T03:34:33.160Z,100101.91
2022-08-16T03:34:55.035Z,100103.03
2022-08-16T03:35:19.119Z,100097.75
2022-08-16T03:35:41.791Z,100080.81
2022-08-16T03:36:29.675Z,100103.94
2022-08-16T03:36:55.732Z,100099.19
2022-08-16T03:37:17.691Z,100105.47
2022-08-16T03:38:02.157Z,100106.19
2022-08-16T03:38:34.471Z,100104.78
2022-08-16T03:39:05.676Z,100096.94
2022-08-16T03:39:42.531Z,100096.66
2022-08-16T03:40:07.633Z,100103.06
2022-08-16T03:40:33.040Z,100099.50
2022-08-16T03:40:57.657Z,100097.47
2022-08-16T03:41:25.374Z,100104.63
2022-08-16T03:42:00.008Z,100103.75
2022-08-16T03:42:23.196Z,100093.22
2022-08-16T03:43:00.337Z,100099.06
2022-08-16T03:43:51.211Z,100095.78
2022-08-16T03:44:13.802Z,100092.06
2022-08-16T03:45:03.577Z,100096.78
2022-08-16T03:45:31.284Z,100104.38
2022-08-16T03:45:55.157Z,100099.78
2022-08-16T03:46:47.196Z,100096.38
2022-08-16T03:47:05.124Z,100098.97
2022-08-16T03:47:34.214Z,100095.66
2022-08-16T03:47:58.256Z,100098.38
2022-08-16T03:48:36.828Z,100099.22
2022-08-16T03:49:11.755Z,100090.09
2022-08-16T03:49:36.571Z,100098.53
2022-08-16T03:50:00.439Z,100098.69
2022-08-16T03:50:25.866Z,100102.09
2022-08-16T03:50:59.632Z,100097.69
2022-08-16T03:51:25.330Z,100097.28
2022-08-16T03:51:52.025Z,100093.56
2022-08-16T03:52:17.953Z,100098.28
2022-08-16T03:52:43.734Z,100104.25
2022-08-16T03:53:07.271Z,100100.25
2022-08-16T03:53:37.366Z,100089.59
2022-08-16T03:54:01.700Z,100100.00
2022-08-16T03:54:28.528Z,100097.28
2022-08-16T03:54:53.312Z,100102.84
2022-08-16T03:55:20.544Z,100092.44
2022-08-16T03:55:45.926Z,100102.69
2022-08-16T03:56:20.109Z,100104.41
2022-08-16T03:56:56.612Z,100094.00
2022-08-16T03:57:21.838Z,100099.13
2022-08-16T03:57:44.892Z,100099.13
2022-08-16T03:58:15.455Z,100101.13
2022-08-16T03:58:37.533Z,100091.88
2022-08-16T03:59:02.207Z,100093.28
2022-08-16T03:59:33.306Z,100099.00
2022-08-16T04:00:12.252Z,100100.88
2022-08-16T04:00:59.048Z,100103.59
2022-08-16T04:01:23.169Z,100097.31
2022-08-16T04:01:46.689Z,100104.72
2022-08-16T04:02:22.571Z,100096.91
2022-08-16T04:02:55.265Z,100089.63
2022-08-16T04:03:18.975Z,100103.72
2022-08-16T04:03:41.027Z,100093.16
2022-08-16T04:04:04.068Z,100094.19
2022-08-16T04:04:33.120Z,100084.50
2022-08-16T04:04:57.860Z,100099.88
2022-08-16T04:05:19.808Z,100103.31
2022-08-16T04:05:48.387Z,100099.88
2022-08-16T04:06:12.510Z,100105.47
2022-08-16T04:06:35.232Z,100107.31
2022-08-16T04:06:57.018Z,100098.19
2022-08-16T04:07:19.874Z,100103.03
2022-08-16T04:07:42.693Z,100099.19
2022-08-16T04:08:22.927Z,100107.31
2022-08-16T04:08:48.438Z,100104.63
2022-08-16T04:09:12.662Z,100101.91
2022-08-16T04:09:38.171Z,100107.31
2022-08-16T04:10:00.883Z,100110.16
2022-08-16T04:10:42.506Z,100109.03
2022-08-16T04:11:07.230Z,100104.75
2022-08-16T04:11:36.756Z,100111.75
2022-08-16T04:11:59.272Z,100107.00
2022-08-16T04:12:53.532Z,100114.16
2022-08-16T04:13:03.850Z,100106.31
2022-08-16T04:14:00.813Z,100101.19
2022-08-16T04:14:32.573Z,100114.28
2022-08-16T04:14:53.908Z,100108.59
2022-08-16T04:15:17.164Z,100115.88
2022-08-16T04:15:53.845Z,100118.56
2022-08-16T04:16:26.730Z,100121.28
2022-08-16T04:16:56.272Z,100115.88
2022-08-16T04:17:27.181Z,100118.41
2022-08-16T04:17:50.770Z,100116.56
2022-08-16T04:18:12.454Z,100109.16
2022-08-16T04:18:38.128Z,100120.44
2022-08-16T04:19:02.133Z,100122.97
2022-08-16T04:19:26.729Z,100110.03
2022-08-16T04:19:54.876Z,100114.16
2022-08-16T04:20:29.371Z,100119.56
2022-08-16T04:20:54.680Z,100115.16
2022-08-16T04:21:29.329Z,100119.56
2022-08-16T04:21:51.521Z,100117.56
2022-08-16T04:22:20.804Z,100113.28
2022-08-16T04:22:52.822Z,100118.72
2022-08-16T04:23:16.031Z,100113.44
2022-08-16T04:23:38.928Z,100113.28
2022-08-16T04:24:01.202Z,100118.72
2022-08-16T04:24:23.929Z,100115.88
2022-08-16T04:24:54.423Z,100114.47
2022-08-16T04:25:20.855Z,100119.16
2022-08-16T04:25:47.071Z,100117.00
2022-08-16T04:26:16.718Z,100118.72
2022-08-16T04:26:46.559Z,100121.88
2022-08-16T04:27:09.829Z,100116.59
2022-08-16T04:27:32.338Z,100120.28
2022-08-16T04:27:57.489Z,100123.84
2022-08-16T04:28:56.696Z,100120.28
2022-08-16T04:29:23.904Z,100122.00
2022-08-16T04:29:48.891Z,100124.88
2022-08-16T04:30:32.343Z,100121.16
2022-08-16T04:30:57.301Z,100127.59
2022-08-16T04:31:20.411Z,100125.00
2022-08-16T04:31:43.822Z,100127.59
2022-08-16T04:32:06.345Z,100126.56
2022-08-16T04:32:29.798Z,100127.59
2022-08-16T04:32:52.509Z,100127.59
2022-08-16T04:33:18.624Z,100125.72
2022-08-16T04:33:50.625Z,100124.88
2022-08-16T04:34:14.449Z,100125.56
2022-08-16T04:34:40.252Z,100124.72
2022-08-16T04:35:07.506Z,100127.28
2022-08-16T04:35:34.228Z,100123.00
2022-08-16T04:35:57.574Z,100119.59
2022-08-16T04:36:21.239Z,100122.31
2022-08-16T04:36:43.390Z,100120.47
2022-08-16T04:37:10.670Z,100123.84
2022-08-16T04:37:42.349Z,100122.16
2022-08-16T04:38:24.603Z,100113.75
2022-08-16T04:38:50.114Z,100122.44
2022-08-16T04:39:15.914Z,100131.00
2022-08-16T04:39:47.302Z,100125.72
2022-08-16T04:40:20.596Z,100122.16
2022-08-16T04:40:48.647Z,100126.00
2022-08-16T04:41:12.240Z,100126.16
2022-08-16T04:41:37.555Z,100128.72
2022-08-16T04:42:11.212Z,100133.28
2022-08-16T04:42:38.331Z,100131.44
2022-08-16T04:43:01.193Z,100123.44
2022-08-16T04:43:25.086Z,100125.59
2022-08-16T04:43:46.928Z,100127.56
2022-08-16T04:44:32.841Z,100137.84
2022-08-16T04:44:56.118Z,100128.59
2022-08-16T04:45:35.303Z,100138.41
2022-08-16T04:46:03.265Z,100133.84
2022-08-16T04:47:03.022Z,100126.75
2022-08-16T04:47:21.677Z,100126.59
2022-08-16T04:47:48.184Z,100133.84
2022-08-16T04:48:28.225Z,100120.88
2022-08-16T04:48:56.416Z,100133.59
2022-08-16T04:49:19.729Z,100108.75
2022-08-16T04:49:45.961Z,100132.72
2022-08-16T04:50:12.273Z,100129.88
2022-08-16T04:50:52.952Z,100137.00
2022-08-16T04:51:17.171Z,100131.56
2022-08-16T04:51:41.217Z,100131.56
2022-08-16T04:52:03.425Z,100121.88
2022-08-16T04:52:34.910Z,100126.44
2022-08-16T04:52:59.071Z,100129.59
2022-08-16T04:53:22.979Z,100127.00
2022-08-16T04:53:47.892Z,100130.31
2022-08-16T04:54:12.758Z,100133.84
2022-08-16T04:54:43.216Z,100138.13
2022-08-16T04:55:08.554Z,100131.00
2022-08-16T04:55:38.127Z,100134.44
2022-08-16T04:56:01.096Z,100139.97
2022-08-16T04:56:22.792Z,100130.13
2022-08-16T04:56:48.742Z,100140.28
2022-08-16T04:57:12.941Z,100136.41
2022-08-16T04:57:36.783Z,100134.00
2022-08-16T04:57:59.251Z,100135.56
2022-08-16T04:58:44.379Z,100138.97
2022-08-16T04:59:08.881Z,100123.00
2022-08-16T04:59:31.507Z,100133.69
2022-08-16T04:59:54.180Z,100143.97
2022-08-16T05:00:31.354Z,100143.25
2022-08-16T05:00:59.894Z,100137.28
2022-08-16T05:01:22.116Z,100139.13
2022-08-16T05:02:04.954Z,100140.84
2022-08-16T05:02:54.774Z,100139.84
2022-08-16T05:03:21.190Z,100143.41
2022-08-16T05:04:00.633Z,100147.13
2022-08-16T05:04:37.297Z,100150.69
2022-08-16T05:05:02.796Z,100148.09
2022-08-16T05:05:24.605Z,100145.25
2022-08-16T05:05:59.037Z,100148.66
2022-08-16T05:06:45.347Z,100149.81
2022-08-16T05:07:08.426Z,100144.28
2022-08-16T05:07:58.430Z,100150.25
2022-08-16T05:08:28.143Z,100153.22
2022-08-16T05:08:57.137Z,100151.38
2022-08-16T05:09:19.017Z,100149.69
2022-08-16T05:09:49.140Z,100146.81
2022-08-16T05:10:19.844Z,100144.09
2022-08-16T05:10:44.772Z,100152.97
2022-08-16T05:11:09.289Z,100144.81
2022-08-16T05:11:32.363Z,100145.09
2022-08-16T05:11:57.856Z,100159.22
2022-08-16T05:12:30.696Z,100145.50
2022-08-16T05:12:54.986Z,100151.78
2022-08-16T05:13:19.604Z,100147.22
2022-08-16T05:13:46.265Z,100148.41
2022-08-16T05:14:20.021Z,100151.09
2022-08-16T05:14:45.722Z,100154.69
2022-08-16T05:15:13.082Z,100154.50
2022-08-16T05:15:35.436Z,100154.50
2022-08-16T05:15:58.429Z,100151.97
2022-08-16T05:16:25.098Z,100150.25
2022-08-16T05:16:52.394Z,100152.78
2022-08-16T05:17:15.223Z,100156.09
2022-08-16T05:17:37.555Z,100159.78
2022-08-16T05:18:05.594Z,100151.78
2022-08-16T05:18:35.263Z,100153.50
2022-08-16T05:18:59.853Z,100153.66
2022-08-16T05:19:25.897Z,100159.22
2022-08-16T05:20:39.165Z,100160.38
2022-08-16T05:21:06.527Z,100158.50
2022-08-16T05:21:35.792Z,100158.50
2022-08-16T05:22:00.458Z,100161.94
2022-08-16T05:22:23.231Z,100156.53
2022-08-16T05:22:50.605Z,100151.69
2022-08-16T05:23:17.396Z,100161.66
2022-08-16T05:23:40.776Z,100156.09
2022-08-16T05:24:02.997Z,100165.97
2022-08-16T05:24:28.019Z,100156.78
2022-08-16T05:24:54.972Z,100160.22
2022-08-16T05:25:17.887Z,100155.81
2022-08-16T05:25:48.282Z,100152.22
2022-08-16T05:26:20.017Z,100159.94